Latest Weather Observations for Newdegate

IDW60801

Issued at 10:03 pm WST Wednesday 8 July 2020 (issued every 10 minutes, with the page automatically refreshed every 10 minutes)

About weather observations | Map of weather stations | Latest weather observations for WA | Other Formats
Station Details ID: 010692 Name: NEWDEGATE RESEARCH STATION Lat: -33.11 Lon: 118.84 Height: 320.0 m
Data from the previous 72 hours. | See also: Recent months at Newdegate
Date/Time
WST
Temp
°C
App
Temp
°C
Dew
Point
°C
Rel
Hum
%
Delta-T
°C
Wind Press
QNH
hPa
Press
MSL
hPa
Rain since
9am
mm
Dir  Spd
km/h
Gust
km/h
Spd
kts
Gust
kts
08/10:00pm 9.0 6.9 6.8 86 1.0 SW 7 9 4 5 1023.0 1023.3 0.0
08/09:30pm 9.4 7.3 6.8 84 1.2 SW 7 9 4 5 1022.9 1023.2 0.0
08/09:00pm 10.2 7.5 7.4 83 1.4 SW 11 15 6 8 1022.8 1023.1 0.0
08/08:30pm 10.5 7.8 7.4 81 1.5 WSW 11 15 6 8 1022.8 1023.1 0.0
08/08:00pm 10.7 8.4 7.4 80 1.6 WSW 9 13 5 7 1022.8 1023.1 0.0
08/07:30pm 10.8 8.5 7.5 80 1.6 WSW 9 15 5 8 1022.6 1022.9 0.0
08/07:00pm 10.7 8.7 7.2 79 1.7 WSW 7 11 4 6 1022.5 1022.8 0.0
08/06:30pm 10.2 8.2 6.9 80 1.6 WSW 7 9 4 5 1022.1 1022.5 0.0
08/06:00pm 10.1 7.7 7.0 81 1.5 WSW 9 11 5 6 1022.1 1022.5 0.0
08/05:30pm 10.8 8.8 7.3 79 1.7 WSW 7 11 4 6 1021.9 1022.3 0.0
08/05:00pm 11.8 9.1 7.5 75 2.1 WSW 11 17 6 9 1021.8 1022.2 0.0
08/04:30pm 12.4 9.6 7.1 70 2.6 WSW 11 17 6 9 1021.6 1022.0 0.0
08/04:00pm 12.6 10.4 7.9 73 2.3 WSW 9 17 5 9 1021.5 1021.8 0.0
08/03:30pm 12.4 9.4 7.7 73 2.3 WSW 13 20 7 11 1021.4 1021.7 0.0
08/03:00pm 13.0 9.6 7.7 70 2.6 WSW 15 20 8 11 1021.4 1021.7 0.0
08/02:30pm 13.0 9.1 7.0 67 2.9 WSW 17 20 9 11 1021.3 1021.6 0.0
08/02:00pm 13.6 9.6 6.7 63 3.4 WSW 17 22 9 12 1021.2 1021.5 0.0
08/01:30pm 12.9 8.3 6.7 66 3.0 SW 20 28 11 15 1021.2 1021.5 0.0
08/01:00pm 12.9 8.6 6.9 67 2.9 SW 19 26 10 14 1021.5 1021.8 0.0
08/12:30pm 13.1 9.0 8.0 71 2.6 WSW 19 24 10 13 1021.6 1022.0 0.0
08/12:00pm 12.8 8.5 7.7 71 2.5 WSW 20 28 11 15 1022.3 1022.6 0.0
08/11:30am 12.5 7.7 7.4 71 2.5 WSW 22 28 12 15 1022.6 1022.9 0.0
08/11:00am 12.0 7.5 7.1 72 2.4 WSW 20 28 11 15 1022.8 1023.1 0.0
08/10:30am 11.7 7.5 7.6 76 2.0 WSW 19 24 10 13 1022.9 1023.2 0.0
08/10:00am 10.7 7.1 6.8 77 1.9 W 15 26 8 14 1023.1 1023.4 0.0
08/09:30am 9.7 6.0 6.2 79 1.6 W 15 20 8 11 1023.1 1023.4 0.0
08/09:00am 9.1 6.2 6.4 83 1.3 W 11 17 6 9 1022.8 1023.1 0.8
08/08:30am 8.2 5.6 6.0 86 1.0 W 9 13 5 7 1022.5 1022.8 0.8
08/08:00am 7.0 4.8 5.3 89 0.8 W 6 11 3 6 1022.0 1022.4 0.8
08/07:30am 6.3 3.4 4.8 90 0.7 W 9 11 5 6 1021.7 1022.1 0.8
08/07:00am 6.3 3.4 4.6 89 0.7 W 9 15 5 8 1021.6 1022.0 0.8
08/06:30am 6.4 3.9 4.7 89 0.8 W 7 11 4 6 1021.3 1021.6 0.8
08/06:00am 6.6 4.1 4.9 89 0.8 W 7 9 4 5 1021.2 1021.5 0.8
08/05:30am 7.2 4.5 5.5 89 0.8 W 9 13 5 7 1021.0 1021.3 0.8
08/05:00am 7.5 5.2 5.8 89 0.8 W 7 11 4 6 1020.9 1021.2 0.8
08/04:30am 8.1 5.6 6.4 89 0.8 W 9 11 5 6 1020.8 1021.1 0.8
08/04:00am 8.7 6.3 7.0 89 0.8 W 9 15 5 8 1020.8 1021.1 0.8
08/03:30am 9.4 6.8 7.7 89 0.8 W 11 15 6 8 1020.8 1021.1 0.8
08/03:00am 9.6 7.4 8.0 90 0.8 W 9 13 5 7 1020.7 1021.0 0.8
08/02:30am 9.7 7.2 8.3 91 0.7 W 11 15 6 8 1020.7 1021.0 0.8
08/02:00am 9.7 7.2 8.1 90 0.8 W 11 17 6 9 1020.6 1020.9 0.6
08/01:30am 9.9 6.6 8.2 89 0.8 WNW 15 24 8 13 1020.5 1020.8 0.6
08/01:00am 9.8 6.2 8.2 90 0.8 NW 17 22 9 12 1020.3 1020.6 0.6
08/12:30am 10.1 6.5 8.2 88 0.9 NW 17 20 9 11 1020.2 1020.5 0.0
08/12:00am 9.7 6.8 8.0 89 0.8 NW 13 17 7 9 1020.1 1020.4 0.0
 
Date/Time
WST
Temp
°C
App
Temp
°C
Dew
Point
°C
Rel
Hum
%
Delta-T
°C
Wind Press
QNH
hPa
Press
MSL
hPa
Rain since
9am
mm
Dir  Spd
km/h
Gust
km/h
Spd
kts
Gust
kts
07/11:30pm 9.7 7.1 7.6 87 1.0 NW 11 15 6 8 1020.3 1020.6 0.0
07/11:00pm 10.4 7.1 8.0 85 1.2 NW 15 22 8 12 1020.5 1020.8 0.0
07/10:30pm 10.7 7.0 8.1 84 1.3 NW 17 22 9 12 1020.7 1021.0 0.0
07/10:00pm 9.6 7.3 7.5 87 1.0 NW 9 13 5 7 1020.6 1020.9 0.0
07/09:30pm 9.5 7.2 7.3 86 1.1 NW 9 11 5 6 1020.7 1021.0 0.0
07/09:00pm 9.5 7.2 7.3 86 1.1 NW 9 11 5 6 1020.8 1021.1 0.0
07/08:30pm 9.0 6.2 6.8 86 1.0 NW 11 13 6 7 1020.6 1020.9 0.0
07/08:00pm 9.2 6.3 6.6 84 1.2 NW 11 13 6 7 1020.5 1020.8 0.0
07/07:30pm 8.8 6.7 6.6 86 1.0 NW 7 9 4 5 1020.5 1020.8 0.0
07/07:00pm 9.2 7.1 6.8 85 1.1 NW 7 9 4 5 1020.5 1020.8 0.0
07/06:30pm 9.8 7.5 7.4 85 1.2 NW 9 11 5 6 1020.4 1020.7 0.0
07/06:00pm 10.9 9.0 7.6 80 1.6 NW 7 9 4 5 1020.1 1020.4 0.0
07/05:30pm 12.5 9.7 8.4 76 2.1 NW 13 17 7 9 1020.1 1020.4 0.0
07/05:00pm 12.8 9.6 8.3 74 2.3 NW 15 20 8 11 1020.1 1020.4 0.0
07/04:30pm 13.1 9.8 8.0 71 2.6 NW 15 20 8 11 1019.9 1020.2 0.0
07/04:00pm 13.3 9.6 8.0 70 2.7 NW 17 22 9 12 1019.9 1020.2 0.0
07/03:30pm 13.5 9.4 7.7 68 2.9 WNW 19 24 10 13 1019.7 1020.0 0.0
07/03:00pm 13.9 10.3 8.3 69 2.8 NW 17 24 9 13 1019.8 1020.1 0.0
07/02:30pm 13.9 9.8 7.7 66 3.1 WNW 19 28 10 15 1019.7 1020.0 0.0
07/02:00pm 13.4 8.6 7.4 67 3.0 NW 22 30 12 16 1019.9 1020.2 0.0
07/01:30pm 13.4 8.1 7.0 65 3.2 WNW 24 33 13 18 1019.9 1020.2 0.0
07/01:00pm 14.0 9.4 6.4 60 3.7 W 20 33 11 18 1020.0 1020.3 0.0
07/12:30pm 13.6 9.0 6.5 62 3.5 WNW 20 32 11 17 1020.2 1020.5 0.0
07/12:00pm 14.9 10.8 8.6 66 3.2 WNW 20 33 11 18 1020.2 1020.5 0.0
07/11:30am 14.0 9.1 8.6 70 2.8 WNW 24 35 13 19 1020.7 1021.0 0.0
07/11:00am 13.4 8.7 7.8 69 2.8 WNW 22 35 12 19 1021.0 1021.3 0.0
07/10:30am 12.7 8.3 7.6 71 2.5 WNW 20 30 11 16 1021.2 1021.5 0.0
07/10:00am 12.2 8.1 7.9 75 2.1 WNW 19 28 10 15 1021.6 1022.0 0.0
07/09:30am 11.3 8.0 8.0 80 1.6 NW 15 24 8 13 1021.5 1021.8 0.0
07/09:00am 10.4 6.6 7.5 82 1.4 NW 17 24 9 13 1021.4 1021.7 2.0
07/08:30am 9.3 5.8 7.1 86 1.1 NW 15 24 8 13 1021.1 1021.4 2.0
07/08:00am 7.9 5.0 6.4 90 0.7 NW 11 19 6 10 1021.0 1021.3 2.0
07/07:30am 6.6 4.4 5.1 90 0.7 NW 6 7 3 4 1020.6 1020.9 2.0
07/07:00am 6.7 4.5 5.2 90 0.7 NW 6 9 3 5 1020.5 1020.8 2.0
07/06:30am 7.0 4.8 5.5 90 0.7 WNW 6 9 3 5 1020.0 1020.3 2.0
07/06:00am 7.1 4.4 5.6 90 0.7 NW 9 13 5 7 1019.8 1020.1 2.0
07/05:30am 7.2 4.1 5.7 90 0.7 NW 11 13 6 7 1019.7 1020.0 1.8
07/05:00am 7.3 3.9 5.8 90 0.7 NW 13 17 7 9 1019.4 1019.7 1.8
07/04:30am 7.5 4.5 6.0 90 0.7 NW 11 15 6 8 1019.2 1019.5 1.8
07/04:00am 7.7 3.6 6.2 90 0.7 NNW 17 24 9 13 1019.2 1019.5 1.8
07/03:30am 8.0 4.3 6.3 89 0.8 NNW 15 19 8 10 1019.2 1019.5 1.8
07/03:00am 8.1 4.5 6.6 90 0.7 NNW 15 19 8 10 1019.0 1019.2 1.8
07/02:30am 7.9 4.6 6.4 90 0.7 NNW 13 15 7 8 1018.8 1019.1 1.8
07/02:00am 8.4 4.8 6.7 89 0.8 NNW 15 17 8 9 1018.7 1019.0 1.8
07/01:30am 8.8 4.9 7.1 89 0.8 NNW 17 20 9 11 1018.8 1019.1 1.8
07/01:00am 8.8 5.3 7.3 90 0.7 NNW 15 19 8 10 1018.6 1018.9 1.8
07/12:30am 9.4 6.0 7.7 89 0.8 NNW 15 19 8 10 1018.7 1019.0 1.8
07/12:00am 9.8 6.1 7.9 88 0.9 NNW 17 22 9 12 1018.6 1018.9 1.8
 
Date/Time
WST
Temp
°C
App
Temp
°C
Dew
Point
°C
Rel
Hum
%
Delta-T
°C
Wind Press
QNH
hPa
Press
MSL
hPa
Rain since
9am
mm
Dir  Spd
km/h
Gust
km/h
Spd
kts
Gust
kts
06/11:30pm 10.4 6.4 8.3 87 1.0 NW 19 24 10 13 1018.6 1018.9 1.8
06/11:00pm 10.8 6.7 8.6 86 1.1 NW 20 28 11 15 1018.6 1018.9 1.8
06/10:30pm 11.7 7.2 8.6 81 1.6 NW 22 30 12 16 1018.4 1018.7 1.8
06/10:00pm 11.5 6.8 7.8 78 1.8 NNW 22 32 12 17 1018.1 1018.4 1.8
06/09:30pm 11.4 8.0 7.5 77 1.9 NNW 15 24 8 13 1018.0 1018.3 1.8
06/09:00pm 10.1 6.9 6.8 80 1.6 N 13 15 7 8 1017.9 1018.2 1.8
06/08:30pm 11.8 8.3 7.1 73 2.3 NW 15 22 8 12 1017.9 1018.2 1.8
06/08:00pm 12.3 7.7 6.6 68 2.8 NW 20 28 11 15 1018.0 1018.3 1.8
06/07:30pm 12.4 7.4 6.5 67 2.9 NW 22 28 12 15 1017.6 1017.9 1.8
06/07:00pm 12.6 8.5 6.2 65 3.1 NW 17 22 9 12 1017.1 1017.4 1.8
06/06:30pm 13.2 8.7 6.3 63 3.3 NW 19 24 10 13 1016.8 1017.1 1.8
06/06:00pm 13.3 8.7 6.4 63 3.4 NW 20 28 11 15 1016.3 1016.5 1.8
06/05:30pm 13.8 8.8 6.4 61 3.6 NW 22 30 12 16 1016.0 1016.2 1.8
06/05:00pm 14.6 8.8 6.4 58 4.0 NW 26 37 14 20 1015.4 1015.7 1.8
06/04:30pm 15.4 9.3 6.4 55 4.4 NW 28 39 15 21 1015.0 1015.3 1.8
06/04:00pm 16.1 9.0 6.5 53 4.8 NW 33 46 18 25 1014.9 1015.2 1.8
06/03:30pm 16.5 9.2 7.2 54 4.7 NW 35 48 19 26 1014.8 1015.1 1.8
06/03:00pm 16.7 9.8 7.4 54 4.7 NW 33 46 18 25 1014.8 1015.1 1.8
06/02:30pm 16.7 10.0 8.1 57 4.4 NW 33 46 18 25 1014.8 1015.1 1.8
06/02:00pm 16.5 9.7 9.4 63 3.7 NNW 35 44 19 24 1014.9 1015.2 1.8
06/01:30pm 16.7 10.7 10.1 65 3.5 NNW 32 46 17 25 1015.0 1015.3 1.8
06/01:00pm 15.1 11.8 11.5 79 2.0 NNW 20 30 11 16 1015.3 1015.6 1.8
06/12:30pm 15.2 10.7 11.4 78 2.1 NNW 26 37 14 20 1015.7 1015.9 1.8
06/12:00pm 14.1 9.5 10.9 81 1.7 NNW 26 32 14 17 1016.3 1016.5 1.8
06/11:30am 12.6 9.1 10.1 85 1.3 NNW 19 26 10 14 1016.3 1016.5 1.8
06/11:00am 12.1 8.9 10.0 87 1.1 N 17 24 9 13 1016.8 1017.1 1.8
06/10:30am 11.9 9.0 9.6 86 1.2 NNW 15 20 8 11 1016.5 1016.8 1.4
06/10:00am 13.1 10.7 8.8 75 2.2 WSW 11 15 6 8 1016.7 1017.0 0.0
06/09:30am 12.1 9.0 7.2 72 2.4 WSW 13 17 7 9 1017.0 1017.3 0.0
06/09:00am 11.6 8.3 6.3 70 2.5 WSW 13 19 7 10 1017.0 1017.3 0.0
06/08:30am 11.3 7.9 6.0 70 2.5 WSW 13 17 7 9 1016.6 1016.9 0.0
06/08:00am 10.6 7.1 5.6 71 2.3 SSW 13 17 7 9 1016.2 1016.4 0.0
06/07:30am 9.5 7.1 4.3 70 2.3 SSW 6 9 3 5 1016.1 1016.3 0.0
06/07:00am 9.5 7.5 4.3 70 2.3 SSW 4 6 2 3 1015.8 1016.0 0.0
06/06:30am 9.3 7.0 4.7 73 2.1 SSW 6 7 3 4 1015.1 1015.4 0.0
06/06:00am 9.3 7.0 4.9 74 2.0 E 6 9 3 5 1014.6 1014.9 0.0
06/05:30am 9.3 6.9 5.1 75 1.9 E 7 11 4 6 1014.9 1015.2 0.0
06/05:00am 10.1 6.9 4.9 70 2.4 N 11 13 6 7 1015.2 1015.5 0.0
06/04:30am 10.8 7.9 4.9 67 2.7 NNW 9 11 5 6 1015.0 1015.3 0.0
06/04:00am 11.5 7.2 5.2 65 2.9 WNW 17 24 9 13 1015.2 1015.5 0.0
06/03:30am 8.5 6.5 4.5 76 1.8 ESE 4 9 2 5 1014.1 1014.4 0.0
06/03:00am 7.8 5.3 3.5 74 1.9 ENE 6 7 3 4 1014.0 1014.3 0.0
06/02:30am 8.6 6.6 4.2 74 2.0 ESE 4 6 2 3 1014.0 1014.3 0.0
06/02:00am 8.9 6.2 3.9 71 2.2 E 7 9 4 5 1014.5 1014.8 0.0
06/01:30am 9.4 6.8 4.2 70 2.3 E 7 9 4 5 1015.0 1015.3 0.0
06/01:00am 9.9 8.4 4.9 71 2.3 ESE 2 9 1 5 1015.0 1015.3 0.0
06/12:30am 10.0 7.1 4.8 70 2.4 E 9 11 5 6 1015.2 1015.5 0.0
06/12:00am 10.8 8.6 5.1 68 2.6 ESE 6 7 3 4 1015.7 1015.9 0.0
 
Date/Time
WST
Temp
°C
App
Temp
°C
Dew
Point
°C
Rel
Hum
%
Delta-T
°C
Wind Press
QNH
hPa
Press
MSL
hPa
Rain since
9am
mm
Dir  Spd
km/h
Gust
km/h
Spd
kts
Gust
kts
05/11:30pm 10.3 7.3 5.9 74 2.1 E 11 13 6 7 1015.9 1016.1 0.0
05/11:00pm 8.4 7.4 5.5 82 1.3 CALM 0 0 0 0 1016.4 1016.7 0.0
05/10:30pm 9.4 7.9 6.7 83 1.3 ENE 4 4 2 2 1016.6 1016.9 0.0

Other formats

Comma delimited format used in spreadsheet applications
http://www.bom.gov.au/fwo/IDW60801/IDW60801.94628.axf

JavaScript Object Notation format (JSON) in row-major order
http://www.bom.gov.au/fwo/IDW60801/IDW60801.94628.json

Data quality

Most of these data are generated automatically and are frequently updated. Quality checks on data are not normally performed. It is possible for incorrect values to appear. Refer to information at About Latest Weather Observations and please check the disclaimer before using these data.